Time;durP1;ratioP1;P1;durP2;ratioP2;P2;SDS_P1;SDS_P2;PMS_P1;PMS_P2;Temp;Humidity;BMP_temperature;BMP_pressure;BME280_temperature;BME280_humidity;BME280_pressure;Samples;Min_cycle;Max_cycle;Signal;HPM_P1;HPM_P2
2021/08/08 00:00:28;;;;;;;9.98;7.07;;;;;;;;;;5054385;28;20178;-73
2021/08/08 00:02:54;;;;;;;9.80;7.30;;;;;;;;;;5036593;28;20689;-72
2021/08/08 00:05:19;;;;;;;10.07;8.02;;;;;;;;;;5054534;28;20172;-71
2021/08/08 00:07:44;;;;;;;11.52;8.88;;;;;;;;;;5054660;28;20181;-71
2021/08/08 00:10:10;;;;;;;10.20;7.53;;;;;;;;;;5054013;28;20186;-71
2021/08/08 00:12:36;;;;;;;9.38;8.25;;;;;;;;;;5055654;28;20217;-71
2021/08/08 00:15:02;;;;;;;11.15;8.80;;;;;;;;;;5071059;28;20205;-71
2021/08/08 00:17:27;;;;;;;10.68;7.93;;;;;;;;;;5080047;28;20197;-71
2021/08/08 00:19:53;;;;;;;10.70;9.50;;;;;;;;;;5079530;28;20191;-71
2021/08/08 00:22:19;;;;;;;12.82;9.55;;;;;;;;;;5062396;28;20208;-70
2021/08/08 00:24:44;;;;;;;8.57;7.70;;;;;;;;;;5079778;28;20249;-71
2021/08/08 00:27:09;;;;;;;9.25;7.70;;;;;;;;;;5079906;28;20170;-71
2021/08/08 00:29:34;;;;;;;10.85;7.15;;;;;;;;;;5079501;28;20186;-70
2021/08/08 00:32:00;;;;;;;8.45;6.53;;;;;;;;;;5062544;28;20185;-70
2021/08/08 00:34:25;;;;;;;8.30;6.28;;;;;;;;;;5054141;28;20170;-71
2021/08/08 00:36:50;;;;;;;7.50;6.28;;;;;;;;;;5056624;28;20267;-71
2021/08/08 00:39:17;;;;;;;9.20;5.82;;;;;;;;;;5056272;28;20217;-73
2021/08/08 00:41:42;;;;;;;10.45;6.03;;;;;;;;;;5056599;28;20166;-72
2021/08/08 00:44:07;;;;;;;6.78;4.97;;;;;;;;;;5037973;28;20177;-77
2021/08/08 00:46:32;;;;;;;6.57;5.07;;;;;;;;;;5038413;28;20710;-76
2021/08/08 00:48:58;;;;;;;5.68;4.75;;;;;;;;;;5038405;28;20188;-75
2021/08/08 00:51:25;;;;;;;11.02;5.75;;;;;;;;;;5055788;28;20173;-74
2021/08/08 00:53:50;;;;;;;8.23;5.07;;;;;;;;;;5054111;28;20720;-74
2021/08/08 00:56:16;;;;;;;9.63;5.45;;;;;;;;;;5054566;28;20197;-75
2021/08/08 00:58:41;;;;;;;8.27;5.43;;;;;;;;;;5053826;28;20178;-76
2021/08/08 01:01:07;;;;;;;13.77;5.90;;;;;;;;;;5035636;28;20196;-79
2021/08/08 01:03:33;;;;;;;6.43;4.60;;;;;;;;;;5051579;28;20449;-76
2021/08/08 01:06:18;;;;;;;6.47;4.75;;;;;;;;;;5053786;28;20635;-74
2021/08/08 01:08:51;;;;;;;7.15;4.97;;;;;;;;;;5045809;28;20276;-75
2021/08/08 01:11:17;;;;;;;12.90;5.35;;;;;;;;;;5035685;28;20184;-75
2021/08/08 01:13:43;;;;;;;7.53;6.07;;;;;;;;;;5053718;28;20209;-75
2021/08/08 01:16:09;;;;;;;8.40;5.65;;;;;;;;;;5053329;28;20560;-75
2021/08/08 01:18:34;;;;;;;9.85;6.13;;;;;;;;;;5053391;28;20265;-73
2021/08/08 01:21:00;;;;;;;7.82;6.07;;;;;;;;;;5035322;28;20173;-74
2021/08/08 01:23:27;;;;;;;9.48;5.60;;;;;;;;;;5053314;28;20263;-74
2021/08/08 01:25:52;;;;;;;8.43;5.63;;;;;;;;;;5053172;28;20213;-74
2021/08/08 01:28:17;;;;;;;8.23;6.03;;;;;;;;;;5053413;28;20190;-75
2021/08/08 01:30:43;;;;;;;7.95;6.40;;;;;;;;;;5035041;28;20173;-74
2021/08/08 01:33:09;;;;;;;13.20;8.00;;;;;;;;;;5053116;28;20200;-73
2021/08/08 01:35:34;;;;;;;13.43;8.60;;;;;;;;;;5052829;28;20589;-75
2021/08/08 01:37:59;;;;;;;15.18;9.77;;;;;;;;;;5052899;28;20290;-73
2021/08/08 01:40:43;;;;;;;18.25;10.60;;;;;;;;;;5052306;28;20650;-73
2021/08/08 01:43:11;;;;;;;14.38;8.82;;;;;;;;;;5050873;28;20193;-72
2021/08/08 01:45:39;;;;;;;16.90;10.40;;;;;;;;;;5034789;28;20174;-74
2021/08/08 01:48:05;;;;;;;13.10;9.10;;;;;;;;;;5052341;28;20264;-74
2021/08/08 01:50:31;;;;;;;17.20;10.35;;;;;;;;;;5034739;28;20238;-76
2021/08/08 01:52:58;;;;;;;13.27;9.05;;;;;;;;;;5054362;28;20280;-75
2021/08/08 01:55:24;;;;;;;14.60;8.95;;;;;;;;;;5049572;28;20178;-76
2021/08/08 01:57:49;;;;;;;18.17;9.90;;;;;;;;;;5053513;28;20407;-77
2021/08/08 02:00:19;;;;;;;23.23;10.95;;;;;;;;;;5052192;28;20256;-75
2021/08/08 02:02:58;;;;;;;20.95;11.93;;;;;;;;;;5048230;28;20267;-77
2021/08/08 02:05:26;;;;;;;25.25;11.85;;;;;;;;;;5051259;28;20180;-75
2021/08/08 02:07:51;;;;;;;28.02;13.45;;;;;;;;;;5052631;28;20666;-77
2021/08/08 02:10:17;;;;;;;22.27;11.27;;;;;;;;;;5052307;28;20185;-77
2021/08/08 02:12:42;;;;;;;27.85;11.90;;;;;;;;;;5064521;22;20233;-76
2021/08/08 02:15:09;;;;;;;21.00;12.70;;;;;;;;;;5051537;28;20189;-74
2021/08/08 02:17:34;;;;;;;19.08;10.88;;;;;;;;;;5051924;28;20672;-75
2021/08/08 02:20:00;;;;;;;23.00;11.20;;;;;;;;;;5051174;28;20300;-72
2021/08/08 02:22:25;;;;;;;24.87;10.47;;;;;;;;;;5028444;28;20271;-73
2021/08/08 02:24:50;;;;;;;25.50;10.55;;;;;;;;;;5031741;28;20399;-73
2021/08/08 02:27:15;;;;;;;22.25;9.27;;;;;;;;;;5031785;28;20597;-71
2021/08/08 02:29:41;;;;;;;17.38;8.40;;;;;;;;;;5013558;28;20210;-71
2021/08/08 02:32:06;;;;;;;30.33;10.57;;;;;;;;;;5031728;28;20561;-74
2021/08/08 02:34:31;;;;;;;34.25;9.80;;;;;;;;;;5031346;28;20632;-74
2021/08/08 02:36:56;;;;;;;24.13;9.07;;;;;;;;;;5033115;28;20698;-73
2021/08/08 02:39:21;;;;;;;20.60;9.93;;;;;;;;;;5013192;28;20170;-72
2021/08/08 02:41:46;;;;;;;23.27;8.70;;;;;;;;;;5031544;28;20222;-73
2021/08/08 02:44:12;;;;;;;24.98;9.90;;;;;;;;;;5031223;28;20651;-73
2021/08/08 02:46:37;;;;;;;16.75;7.93;;;;;;;;;;5031530;28;20182;-73
2021/08/08 02:49:02;;;;;;;20.30;8.15;;;;;;;;;;5012949;28;20781;-72
2021/08/08 02:51:27;;;;;;;21.77;9.02;;;;;;;;;;5031485;28;20561;-72
2021/08/08 02:53:52;;;;;;;31.40;9.85;;;;;;;;;;5031221;28;20206;-71
2021/08/08 02:56:18;;;;;;;28.33;9.25;;;;;;;;;;5031452;28;20201;-71
2021/08/08 02:58:43;;;;;;;20.60;9.35;;;;;;;;;;5030926;28;20178;-71
2021/08/08 03:01:10;;;;;;;37.63;11.07;;;;;;;;;;5029392;28;20194;-73
2021/08/08 03:03:36;;;;;;;24.52;11.05;;;;;;;;;;5028307;28;20975;-72
2021/08/08 03:06:01;;;;;;;22.15;9.90;;;;;;;;;;5031015;28;20213;-71
2021/08/08 03:08:26;;;;;;;24.27;10.40;;;;;;;;;;5030935;28;20221;-70
2021/08/08 03:10:51;;;;;;;29.23;11.15;;;;;;;;;;5031064;28;20193;-73
2021/08/08 03:13:16;;;;;;;22.65;9.82;;;;;;;;;;5013116;28;20225;-72
2021/08/08 03:15:42;;;;;;;26.23;11.43;;;;;;;;;;5034266;28;20675;-72
2021/08/08 03:18:07;;;;;;;30.60;10.02;;;;;;;;;;5016439;28;20190;-72
2021/08/08 03:20:32;;;;;;;25.85;10.05;;;;;;;;;;5031176;28;20244;-70
2021/08/08 03:22:58;;;;;;;27.08;9.45;;;;;;;;;;5031018;28;20234;-72
2021/08/08 03:25:23;;;;;;;23.95;8.70;;;;;;;;;;5031181;28;20283;-71
2021/08/08 03:27:50;;;;;;;18.17;7.73;;;;;;;;;;5030695;28;20232;-72
2021/08/08 03:30:15;;;;;;;20.13;8.27;;;;;;;;;;5012900;28;20416;-72
2021/08/08 03:32:41;;;;;;;20.55;10.70;;;;;;;;;;5030893;28;20679;-72
2021/08/08 03:35:07;;;;;;;22.45;9.68;;;;;;;;;;5014129;28;20205;-72
2021/08/08 03:37:32;;;;;;;19.85;7.82;;;;;;;;;;5030808;28;20210;-71
2021/08/08 03:39:57;;;;;;;16.90;7.97;;;;;;;;;;5030318;28;20174;-73
2021/08/08 03:42:22;;;;;;;15.43;8.13;;;;;;;;;;5030895;28;20194;-71
2021/08/08 03:44:50;;;;;;;12.18;7.43;;;;;;;;;;5030389;28;20217;-71
2021/08/08 03:47:15;;;;;;;19.45;9.13;;;;;;;;;;5030767;28;20728;-73
2021/08/08 03:49:40;;;;;;;21.57;8.90;;;;;;;;;;5030408;28;20182;-71
2021/08/08 03:52:05;;;;;;;17.60;9.48;;;;;;;;;;5030657;28;20435;-71
2021/08/08 03:54:31;;;;;;;13.95;8.73;;;;;;;;;;5013133;28;20198;-71
2021/08/08 03:56:56;;;;;;;13.35;8.95;;;;;;;;;;5030815;28;20695;-71
2021/08/08 03:59:21;;;;;;;14.60;7.75;;;;;;;;;;5030337;28;20171;-72
2021/08/08 04:01:46;;;;;;;14.25;7.82;;;;;;;;;;5028863;28;20180;-73
2021/08/08 04:04:11;;;;;;;11.32;6.78;;;;;;;;;;5030736;28;20557;-71
2021/08/08 04:06:36;;;;;;;11.80;7.13;;;;;;;;;;5030316;28;20256;-72
2021/08/08 04:09:02;;;;;;;13.10;6.47;;;;;;;;;;5012786;28;20250;-73
2021/08/08 04:11:27;;;;;;;13.07;7.32;;;;;;;;;;5030879;28;20197;-72
2021/08/08 04:13:52;;;;;;;13.82;7.18;;;;;;;;;;5034433;28;20599;-73
2021/08/08 04:16:17;;;;;;;13.32;6.68;;;;;;;;;;5033687;28;20206;-73
2021/08/08 04:18:43;;;;;;;14.33;8.03;;;;;;;;;;5034251;28;20179;-73
2021/08/08 04:21:08;;;;;;;18.50;7.97;;;;;;;;;;5034024;28;20400;-72
2021/08/08 04:23:33;;;;;;;21.00;8.90;;;;;;;;;;5034536;28;20289;-71
2021/08/08 04:25:58;;;;;;;19.13;9.13;;;;;;;;;;5033908;28;20261;-74
2021/08/08 04:28:23;;;;;;;21.35;8.77;;;;;;;;;;5034041;28;20556;-73
2021/08/08 04:30:49;;;;;;;22.58;8.77;;;;;;;;;;5033522;28;20214;-72
2021/08/08 04:33:14;;;;;;;25.50;9.45;;;;;;;;;;5016195;28;20254;-73
2021/08/08 04:35:39;;;;;;;21.97;8.50;;;;;;;;;;5035142;28;20174;-72
2021/08/08 04:38:05;;;;;;;22.35;9.32;;;;;;;;;;5033812;28;20455;-73
2021/08/08 04:40:30;;;;;;;26.92;10.30;;;;;;;;;;5036703;28;20666;-71
2021/08/08 04:42:55;;;;;;;23.38;7.90;;;;;;;;;;5033813;28;20285;-74
2021/08/08 04:45:21;;;;;;;25.85;10.40;;;;;;;;;;5032965;28;20635;-74
2021/08/08 04:47:47;;;;;;;21.08;8.05;;;;;;;;;;5033916;28;20741;-75
2021/08/08 04:50:12;;;;;;;21.52;9.73;;;;;;;;;;5032936;28;20205;-73
2021/08/08 04:52:38;;;;;;;22.05;9.55;;;;;;;;;;5033751;28;20202;-74
2021/08/08 04:55:03;;;;;;;19.02;8.27;;;;;;;;;;5033195;28;20261;-74
2021/08/08 04:57:29;;;;;;;31.80;9.20;;;;;;;;;;5033574;28;20570;-74
2021/08/08 04:59:54;;;;;;;24.20;8.32;;;;;;;;;;5033052;28;20297;-75
2021/08/08 05:02:20;;;;;;;20.80;8.10;;;;;;;;;;5029812;28;20205;-74
2021/08/08 05:04:45;;;;;;;23.13;10.18;;;;;;;;;;5033302;28;21274;-74
2021/08/08 05:07:10;;;;;;;19.10;8.63;;;;;;;;;;5015602;28;20611;-74
2021/08/08 05:09:35;;;;;;;24.67;10.40;;;;;;;;;;5033082;28;20241;-74
2021/08/08 05:12:00;;;;;;;30.10;9.65;;;;;;;;;;5032652;28;20174;-74
2021/08/08 05:14:26;;;;;;;22.10;9.17;;;;;;;;;;5015470;28;20178;-74
2021/08/08 05:16:52;;;;;;;26.42;9.57;;;;;;;;;;5033014;28;20459;-80
2021/08/08 05:19:17;;;;;;;19.95;8.55;;;;;;;;;;5032870;28;20180;-77
2021/08/08 05:21:42;;;;;;;23.40;9.45;;;;;;;;;;5038989;28;20711;-76
2021/08/08 05:24:07;;;;;;;16.25;7.97;;;;;;;;;;5033022;28;20198;-76
2021/08/08 05:26:33;;;;;;;9.95;4.60;;;;;;;;;;5033004;28;20191;-75
2021/08/08 05:28:58;;;;;;;9.05;4.60;;;;;;;;;;5015166;28;20190;-75
2021/08/08 05:31:23;;;;;;;10.30;6.60;;;;;;;;;;5033071;28;20307;-77
2021/08/08 05:33:48;;;;;;;15.25;7.10;;;;;;;;;;5033585;28;20190;-76
2021/08/08 05:36:13;;;;;;;17.05;8.27;;;;;;;;;;5035122;28;20202;-76
2021/08/08 05:38:39;;;;;;;18.85;8.40;;;;;;;;;;5032996;28;20545;-76
2021/08/08 05:41:04;;;;;;;29.25;9.38;;;;;;;;;;5033373;28;20174;-77
2021/08/08 05:43:29;;;;;;;25.75;10.18;;;;;;;;;;5034098;28;20229;-77
2021/08/08 05:45:54;;;;;;;24.55;9.52;;;;;;;;;;5033374;28;20552;-77
2021/08/08 05:48:19;;;;;;;24.65;9.35;;;;;;;;;;5033841;28;20198;-78
2021/08/08 05:50:44;;;;;;;25.15;9.18;;;;;;;;;;5033291;28;20320;-77
2021/08/08 05:53:10;;;;;;;23.10;9.27;;;;;;;;;;5033296;28;20200;-76
2021/08/08 05:55:36;;;;;;;24.08;7.88;;;;;;;;;;5032872;28;20264;-78
2021/08/08 05:58:01;;;;;;;18.05;7.10;;;;;;;;;;5016664;28;20202;-72
2021/08/08 06:00:27;;;;;;;30.48;9.57;;;;;;;;;;5031901;28;20253;-74
2021/08/08 06:02:52;;;;;;;19.55;7.78;;;;;;;;;;5029887;28;20217;-76
2021/08/08 06:05:17;;;;;;;24.75;8.50;;;;;;;;;;5032215;28;20173;-76
2021/08/08 06:07:42;;;;;;;33.92;10.23;;;;;;;;;;5032246;28;20648;-74
2021/08/08 06:10:07;;;;;;;14.30;7.10;;;;;;;;;;5031630;28;20186;-72
2021/08/08 06:12:33;;;;;;;18.00;7.55;;;;;;;;;;5031818;28;20500;-74
2021/08/08 06:14:58;;;;;;;22.77;6.78;;;;;;;;;;5031902;28;20178;-75
2021/08/08 06:17:23;;;;;;;30.87;8.47;;;;;;;;;;5032034;28;20316;-74
2021/08/08 06:19:48;;;;;;;22.10;7.47;;;;;;;;;;5031649;28;20407;-74
2021/08/08 06:22:14;;;;;;;24.25;7.70;;;;;;;;;;5031782;28;20194;-74
2021/08/08 06:24:40;;;;;;;19.02;6.57;;;;;;;;;;5014088;28;20186;-74
2021/08/08 06:27:05;;;;;;;18.50;5.75;;;;;;;;;;5031757;28;20178;-75
2021/08/08 06:29:30;;;;;;;24.58;7.10;;;;;;;;;;5031527;28;20186;-75
2021/08/08 06:31:55;;;;;;;22.00;6.67;;;;;;;;;;5031903;28;20182;-74
2021/08/08 06:34:20;;;;;;;16.70;5.60;;;;;;;;;;5031371;28;20976;-73
2021/08/08 06:36:45;;;;;;;21.70;7.17;;;;;;;;;;5033310;28;20500;-72
2021/08/08 06:39:11;;;;;;;16.23;5.85;;;;;;;;;;5031118;28;20961;-75
2021/08/08 06:41:36;;;;;;;17.20;5.63;;;;;;;;;;5031641;28;20184;-74
2021/08/08 06:44:01;;;;;;;12.98;5.05;;;;;;;;;;5013910;28;20190;-71
2021/08/08 06:46:27;;;;;;;19.65;5.47;;;;;;;;;;5021728;28;20250;-74
2021/08/08 06:48:52;;;;;;;16.05;4.93;;;;;;;;;;5037102;28;20257;-74
2021/08/08 06:51:17;;;;;;;19.80;6.18;;;;;;;;;;5032745;28;20763;-71
2021/08/08 06:53:42;;;;;;;14.75;5.97;;;;;;;;;;5031619;28;20210;-72
2021/08/08 06:56:07;;;;;;;14.88;4.93;;;;;;;;;;5031667;28;20214;-72
2021/08/08 06:58:32;;;;;;;16.17;5.73;;;;;;;;;;5030922;28;20190;-71
2021/08/08 07:00:58;;;;;;;30.20;7.63;;;;;;;;;;5031362;28;20403;-71
2021/08/08 07:03:23;;;;;;;16.40;5.20;;;;;;;;;;5027449;28;20231;-72
2021/08/08 07:05:48;;;;;;;17.30;5.03;;;;;;;;;;5013489;28;20173;-73
2021/08/08 07:08:13;;;;;;;19.95;4.88;;;;;;;;;;5030919;28;20190;-72
2021/08/08 07:10:39;;;;;;;16.40;5.07;;;;;;;;;;5031336;28;20186;-71
2021/08/08 07:13:04;;;;;;;10.00;4.90;;;;;;;;;;5030673;28;20477;-71
2021/08/08 07:15:29;;;;;;;16.38;5.10;;;;;;;;;;5031498;28;20200;-71
2021/08/08 07:17:55;;;;;;;12.30;4.40;;;;;;;;;;5030988;28;20574;-71
2021/08/08 07:20:20;;;;;;;17.60;5.43;;;;;;;;;;5030851;28;20187;-70
2021/08/08 07:22:45;;;;;;;16.50;5.10;;;;;;;;;;5013041;28;20237;-71
2021/08/08 07:25:10;;;;;;;14.70;5.18;;;;;;;;;;5031240;28;20232;-71
2021/08/08 07:27:35;;;;;;;13.65;4.28;;;;;;;;;;5030817;28;20197;-71
2021/08/08 07:30:01;;;;;;;12.13;4.85;;;;;;;;;;5030849;28;20696;-72
2021/08/08 07:32:26;;;;;;;14.10;5.60;;;;;;;;;;5030791;28;20260;-70
2021/08/08 07:34:51;;;;;;;12.45;4.10;;;;;;;;;;5031720;28;20261;-71
2021/08/08 07:37:17;;;;;;;13.65;4.45;;;;;;;;;;5031262;28;20202;-72
2021/08/08 07:39:42;;;;;;;11.70;4.05;;;;;;;;;;5030869;28;20192;-71
2021/08/08 07:42:07;;;;;;;15.40;4.10;;;;;;;;;;5030557;28;20233;-72
2021/08/08 07:44:32;;;;;;;8.88;3.63;;;;;;;;;;5030874;28;20174;-70
2021/08/08 07:46:58;;;;;;;15.95;3.90;;;;;;;;;;5031860;28;20179;-70
2021/08/08 07:49:23;;;;;;;12.23;3.63;;;;;;;;;;5034578;28;20272;-71
2021/08/08 07:51:50;;;;;;;15.65;3.90;;;;;;;;;;5034753;28;20543;-70
2021/08/08 07:54:15;;;;;;;14.27;4.65;;;;;;;;;;5034869;28;20174;-70
2021/08/08 07:56:40;;;;;;;16.05;5.03;;;;;;;;;;5034709;28;20221;-72
2021/08/08 07:59:05;;;;;;;13.10;4.82;;;;;;;;;;5034548;28;20265;-70
2021/08/08 08:01:32;;;;;;;16.25;3.97;;;;;;;;;;5030414;28;20194;-70
2021/08/08 08:03:57;;;;;;;12.68;3.75;;;;;;;;;;5034523;28;20551;-68
2021/08/08 08:06:22;;;;;;;10.95;3.70;;;;;;;;;;5034666;28;20180;-68
2021/08/08 08:08:47;;;;;;;16.95;5.40;;;;;;;;;;5034596;28;20236;-71
2021/08/08 08:11:13;;;;;;;10.68;3.65;;;;;;;;;;5034300;28;20189;-70
2021/08/08 08:13:38;;;;;;;11.85;3.95;;;;;;;;;;5034189;28;20220;-70
2021/08/08 08:16:04;;;;;;;12.27;4.22;;;;;;;;;;5016297;28;20170;-70
2021/08/08 08:18:29;;;;;;;14.98;3.78;;;;;;;;;;5033907;28;20244;-70
2021/08/08 08:20:54;;;;;;;12.50;3.50;;;;;;;;;;5034299;28;20178;-70
2021/08/08 08:23:21;;;;;;;11.57;3.53;;;;;;;;;;5033971;28;20426;-70
2021/08/08 08:25:46;;;;;;;12.52;3.33;;;;;;;;;;5034329;28;20411;-70
2021/08/08 08:28:12;;;;;;;10.98;3.65;;;;;;;;;;5033639;28;20206;-67
2021/08/08 08:30:37;;;;;;;11.52;3.42;;;;;;;;;;5033915;28;20240;-67
2021/08/08 08:33:04;;;;;;;13.35;4.07;;;;;;;;;;5033477;28;20202;-67
2021/08/08 08:35:30;;;;;;;10.27;3.42;;;;;;;;;;5019349;28;20255;-68
2021/08/08 08:37:55;;;;;;;14.93;4.15;;;;;;;;;;5037332;28;20682;-67
2021/08/08 08:40:20;;;;;;;10.73;4.05;;;;;;;;;;5033405;28;20774;-70
2021/08/08 08:42:49;;;;;;;11.00;3.35;;;;;;;;;;5033566;28;20202;-70
2021/08/08 08:45:15;;;;;;;12.50;3.80;;;;;;;;;;5033421;28;20166;-70
2021/08/08 08:47:40;;;;;;;10.82;4.35;;;;;;;;;;5033766;28;20201;-70
2021/08/08 08:50:08;;;;;;;7.68;3.40;;;;;;;;;;5033461;28;20180;-69
2021/08/08 08:52:33;;;;;;;9.95;3.28;;;;;;;;;;5033589;28;20795;-68
2021/08/08 08:54:59;;;;;;;12.50;3.85;;;;;;;;;;5024267;28;20184;-67
2021/08/08 08:57:24;;;;;;;10.32;3.50;;;;;;;;;;5033187;28;20603;-66
2021/08/08 08:59:50;;;;;;;14.07;3.95;;;;;;;;;;5032429;28;20628;-67
2021/08/08 09:02:15;;;;;;;12.82;3.75;;;;;;;;;;5031432;28;20548;-67
2021/08/08 09:04:40;;;;;;;14.38;4.05;;;;;;;;;;5033231;28;20249;-68
2021/08/08 09:07:06;;;;;;;10.85;3.25;;;;;;;;;;5015527;28;20182;-71
2021/08/08 09:09:32;;;;;;;9.93;3.53;;;;;;;;;;5032956;28;20190;-68
2021/08/08 09:11:57;;;;;;;10.68;3.28;;;;;;;;;;5032942;28;20269;-71
2021/08/08 09:14:23;;;;;;;12.15;4.22;;;;;;;;;;5015435;28;20562;-70
2021/08/08 09:16:49;;;;;;;11.63;3.50;;;;;;;;;;5032669;28;20202;-70
2021/08/08 09:19:22;;;;;;;8.73;2.83;;;;;;;;;;5015322;28;20183;-70
2021/08/08 09:21:47;;;;;;;7.03;3.20;;;;;;;;;;5028508;28;20179;-67
2021/08/08 09:24:25;;;;;;;7.38;3.17;;;;;;;;;;5018430;28;20182;-71
2021/08/08 09:26:58;;;;;;;9.30;3.47;;;;;;;;;;5033187;28;20213;-66
2021/08/08 09:29:24;;;;;;;11.55;3.80;;;;;;;;;;5029214;28;20564;-70
2021/08/08 09:31:49;;;;;;;9.23;3.22;;;;;;;;;;5033178;28;20182;-68
2021/08/08 09:34:25;;;;;;;7.93;3.17;;;;;;;;;;5032528;28;20226;-69
2021/08/08 09:36:51;;;;;;;9.43;3.28;;;;;;;;;;5034449;28;20340;-68
2021/08/08 09:39:30;;;;;;;9.48;2.80;;;;;;;;;;5032168;28;20228;-68
2021/08/08 09:42:12;;;;;;;8.43;3.50;;;;;;;;;;5032573;28;20181;-70
2021/08/08 09:44:38;;;;;;;12.15;3.83;;;;;;;;;;5027892;28;20209;-69
2021/08/08 09:47:04;;;;;;;11.82;4.28;;;;;;;;;;5032172;28;20178;-68
2021/08/08 09:49:29;;;;;;;10.25;2.85;;;;;;;;;;5032559;28;20178;-70
2021/08/08 09:51:55;;;;;;;13.45;3.55;;;;;;;;;;5032596;28;20189;-69
2021/08/08 09:54:20;;;;;;;5.97;2.58;;;;;;;;;;5032519;28;20177;-67
2021/08/08 09:56:56;;;;;;;7.20;3.40;;;;;;;;;;5032328;28;20202;-68
2021/08/08 09:59:21;;;;;;;9.50;2.70;;;;;;;;;;5032168;28;20173;-67
2021/08/08 10:01:46;;;;;;;12.43;3.50;;;;;;;;;;5027849;28;20191;-69
2021/08/08 10:04:12;;;;;;;7.17;2.63;;;;;;;;;;5032304;28;20170;-70
2021/08/08 10:06:38;;;;;;;7.90;2.90;;;;;;;;;;5032211;28;20462;-68
2021/08/08 10:09:03;;;;;;;10.98;3.47;;;;;;;;;;5031790;28;20182;-67
2021/08/08 10:11:29;;;;;;;6.03;2.78;;;;;;;;;;5031906;28;20252;-67
2021/08/08 10:13:57;;;;;;;12.88;4.22;;;;;;;;;;5039714;28;20220;-67
2021/08/08 10:16:23;;;;;;;10.40;3.58;;;;;;;;;;5030556;28;20197;-67
2021/08/08 10:18:56;;;;;;;6.55;3.15;;;;;;;;;;5034782;28;20178;-67
2021/08/08 10:21:22;;;;;;;12.85;3.97;;;;;;;;;;5032823;28;20639;-69
2021/08/08 10:23:48;;;;;;;8.50;3.05;;;;;;;;;;5032517;28;20194;-67
2021/08/08 10:26:13;;;;;;;9.10;3.42;;;;;;;;;;5038224;28;20190;-67
2021/08/08 10:28:39;;;;;;;10.98;4.15;;;;;;;;;;5037753;28;20178;-70
2021/08/08 10:31:04;;;;;;;8.63;3.42;;;;;;;;;;5032547;28;20185;-71
2021/08/08 10:33:30;;;;;;;11.07;3.35;;;;;;;;;;5032304;28;20248;-70
2021/08/08 10:35:55;;;;;;;9.73;3.78;;;;;;;;;;5033125;28;20182;-69
2021/08/08 10:38:20;;;;;;;8.45;3.03;;;;;;;;;;5015663;28;20618;-67
2021/08/08 10:40:47;;;;;;;7.22;3.00;;;;;;;;;;5033113;28;20186;-67
2021/08/08 10:43:27;;;;;;;12.80;3.22;;;;;;;;;;5031538;28;20672;-67
2021/08/08 10:46:05;;;;;;;11.13;3.70;;;;;;;;;;5029468;28;20189;-68
2021/08/08 10:48:34;;;;;;;12.45;3.20;;;;;;;;;;5026918;28;20303;-67
2021/08/08 10:50:59;;;;;;;7.70;3.05;;;;;;;;;;5031289;28;20171;-68
2021/08/08 10:53:26;;;;;;;10.77;3.70;;;;;;;;;;5031171;28;20216;-66
2021/08/08 10:56:08;;;;;;;10.02;2.95;;;;;;;;;;5031310;28;20257;-66
2021/08/08 10:58:34;;;;;;;7.55;3.95;;;;;;;;;;5027496;28;20182;-67
2021/08/08 11:00:59;;;;;;;8.57;3.03;;;;;;;;;;5031293;28;20185;-66
2021/08/08 11:03:24;;;;;;;6.70;2.45;;;;;;;;;;5017929;28;20205;-68
2021/08/08 11:05:49;;;;;;;9.20;2.93;;;;;;;;;;5031064;28;20537;-69
2021/08/08 11:08:15;;;;;;;7.32;2.58;;;;;;;;;;5030926;28;20469;-66
2021/08/08 11:10:41;;;;;;;7.40;3.05;;;;;;;;;;5013276;28;20178;-67
2021/08/08 11:13:17;;;;;;;6.22;2.53;;;;;;;;;;5030632;28;20233;-69
2021/08/08 11:15:44;;;;;;;7.60;2.50;;;;;;;;;;5031271;28;20200;-66
2021/08/08 11:18:09;;;;;;;9.93;3.33;;;;;;;;;;5031319;28;20198;-69
2021/08/08 11:20:34;;;;;;;9.60;3.10;;;;;;;;;;5030668;28;20789;-69
2021/08/08 11:23:02;;;;;;;6.35;2.50;;;;;;;;;;5030375;28;20451;-69
2021/08/08 11:25:34;;;;;;;8.75;2.40;;;;;;;;;;5031253;28;20708;-67
2021/08/08 11:27:59;;;;;;;6.95;2.80;;;;;;;;;;5030695;28;20182;-67
2021/08/08 11:30:24;;;;;;;8.10;2.92;;;;;;;;;;5012924;28;20270;-66
2021/08/08 11:32:53;;;;;;;7.47;2.93;;;;;;;;;;5030840;28;20305;-66
2021/08/08 11:35:27;;;;;;;5.93;2.70;;;;;;;;;;5032205;28;20412;-69
2021/08/08 11:37:52;;;;;;;8.73;2.10;;;;;;;;;;5013212;28;20202;-68
2021/08/08 11:40:24;;;;;;;8.52;2.47;;;;;;;;;;5033961;28;20486;-67
2021/08/08 11:42:54;;;;;;;8.65;2.42;;;;;;;;;;5030036;28;20190;-67
2021/08/08 11:45:30;;;;;;;7.55;2.92;;;;;;;;;;5030084;28;20171;-70
2021/08/08 11:47:55;;;;;;;4.85;2.15;;;;;;;;;;5031077;28;20617;-66
2021/08/08 11:50:23;;;;;;;7.57;2.60;;;;;;;;;;5030088;28;20205;-66
2021/08/08 11:52:48;;;;;;;8.30;2.85;;;;;;;;;;5030836;28;20431;-69
2021/08/08 11:55:14;;;;;;;8.77;2.40;;;;;;;;;;5030060;28;20292;-69
2021/08/08 11:57:39;;;;;;;6.10;2.70;;;;;;;;;;5030650;28;20447;-68
2021/08/08 12:00:04;;;;;;;3.83;2.50;;;;;;;;;;5030010;28;20584;-67
2021/08/08 12:02:30;;;;;;;7.20;3.13;;;;;;;;;;5026688;28;20253;-68
2021/08/08 12:04:55;;;;;;;7.47;3.08;;;;;;;;;;5030127;28;20656;-68
2021/08/08 12:07:21;;;;;;;7.63;3.10;;;;;;;;;;5030581;28;20178;-69
2021/08/08 12:09:47;;;;;;;9.18;3.38;;;;;;;;;;5012279;28;20189;-71
2021/08/08 12:12:12;;;;;;;7.85;3.63;;;;;;;;;;5030552;28;20209;-71
2021/08/08 12:14:41;;;;;;;6.88;3.15;;;;;;;;;;5030412;28;20667;-71
2021/08/08 12:17:12;;;;;;;7.45;2.92;;;;;;;;;;5030556;28;20198;-70
2021/08/08 12:19:38;;;;;;;3.72;2.28;;;;;;;;;;5012600;28;20187;-72
2021/08/08 12:22:05;;;;;;;5.00;2.58;;;;;;;;;;5030629;28;20257;-72
2021/08/08 12:24:34;;;;;;;3.67;2.10;;;;;;;;;;5030492;28;21214;-72
2021/08/08 12:27:00;;;;;;;4.78;2.17;;;;;;;;;;5030379;28;20201;-71
2021/08/08 12:29:29;;;;;;;6.65;2.90;;;;;;;;;;5030468;28;20624;-72
2021/08/08 12:32:03;;;;;;;6.28;3.05;;;;;;;;;;5012963;28;20178;-70
2021/08/08 12:34:30;;;;;;;7.88;3.72;;;;;;;;;;5032221;28;20212;-70
2021/08/08 12:37:00;;;;;;;4.93;2.33;;;;;;;;;;5035434;28;20197;-70
2021/08/08 12:39:26;;;;;;;6.68;2.92;;;;;;;;;;5037947;28;20269;-71
2021/08/08 12:41:51;;;;;;;6.55;2.83;;;;;;;;;;5033794;28;20257;-69
2021/08/08 12:44:16;;;;;;;7.50;2.40;;;;;;;;;;5033413;28;20248;-70
2021/08/08 12:46:42;;;;;;;4.57;2.47;;;;;;;;;;5033548;28;20420;-71
2021/08/08 12:49:09;;;;;;;7.45;2.42;;;;;;;;;;5033269;28;20420;-70
2021/08/08 12:51:34;;;;;;;7.72;3.40;;;;;;;;;;5033856;28;20234;-70
2021/08/08 12:53:59;;;;;;;5.50;3.00;;;;;;;;;;5033677;28;20293;-70
2021/08/08 12:56:25;;;;;;;7.78;2.67;;;;;;;;;;5033678;28;20216;-70
2021/08/08 12:58:51;;;;;;;5.65;2.85;;;;;;;;;;5033296;28;20253;-69
2021/08/08 13:01:20;;;;;;;8.00;3.20;;;;;;;;;;5031379;28;20172;-70
2021/08/08 13:03:45;;;;;;;7.43;2.47;;;;;;;;;;5033193;28;20591;-69
2021/08/08 13:06:10;;;;;;;2.13;1.88;;;;;;;;;;5033370;28;20181;-70
2021/08/08 13:08:35;;;;;;;6.47;1.90;;;;;;;;;;5015425;28;20206;-71
2021/08/08 13:11:01;;;;;;;7.33;2.13;;;;;;;;;;5033457;28;20400;-69
2021/08/08 13:13:26;;;;;;;8.35;2.08;;;;;;;;;;5033106;28;20884;-69
2021/08/08 13:15:51;;;;;;;4.37;1.87;;;;;;;;;;5033608;28;20606;-69
2021/08/08 13:18:16;;;;;;;4.60;2.00;;;;;;;;;;5033004;28;20461;-68
2021/08/08 13:20:41;;;;;;;4.77;1.87;;;;;;;;;;5033207;28;20798;-69
2021/08/08 13:23:07;;;;;;;4.05;1.67;;;;;;;;;;5033302;28;20416;-70
2021/08/08 13:25:32;;;;;;;3.55;2.13;;;;;;;;;;5033141;28;20177;-69
2021/08/08 13:27:57;;;;;;;5.43;1.67;;;;;;;;;;5032878;28;20181;-68
2021/08/08 13:30:23;;;;;;;6.28;2.47;;;;;;;;;;5032882;28;20423;-69
2021/08/08 13:32:48;;;;;;;4.70;2.50;;;;;;;;;;5032684;28;20202;-68
2021/08/08 13:35:14;;;;;;;4.78;2.03;;;;;;;;;;5034438;28;20178;-69
2021/08/08 13:37:39;;;;;;;5.15;1.90;;;;;;;;;;5032398;28;20213;-68
2021/08/08 13:40:08;;;;;;;6.50;2.13;;;;;;;;;;5032694;28;20177;-69
2021/08/08 13:42:33;;;;;;;6.75;2.17;;;;;;;;;;5032702;28;20221;-70
2021/08/08 13:44:58;;;;;;;5.97;1.77;;;;;;;;;;5031697;28;20656;-68
2021/08/08 13:47:23;;;;;;;6.00;2.80;;;;;;;;;;5032455;28;20494;-70
2021/08/08 13:49:49;;;;;;;4.80;1.87;;;;;;;;;;5032649;28;20818;-68
2021/08/08 13:52:14;;;;;;;5.97;1.80;;;;;;;;;;5032393;28;20419;-68
2021/08/08 13:54:39;;;;;;;3.67;1.63;;;;;;;;;;5035002;28;20261;-68
2021/08/08 13:57:04;;;;;;;3.53;1.47;;;;;;;;;;5035777;28;20469;-68
2021/08/08 13:59:31;;;;;;;6.10;2.20;;;;;;;;;;5032781;28;20442;-68
2021/08/08 14:01:56;;;;;;;7.47;2.00;;;;;;;;;;5029699;28;20253;-68
2021/08/08 14:04:21;;;;;;;6.65;2.35;;;;;;;;;;5032582;28;20257;-68
2021/08/08 14:06:46;;;;;;;5.87;1.90;;;;;;;;;;5032164;28;20652;-68
2021/08/08 14:09:11;;;;;;;5.57;2.40;;;;;;;;;;5032187;28;20403;-68
2021/08/08 14:11:38;;;;;;;5.83;1.80;;;;;;;;;;5032097;28;20438;-68
2021/08/08 14:14:03;;;;;;;5.20;1.95;;;;;;;;;;5074125;22;20543;-70
2021/08/08 14:16:28;;;;;;;5.32;2.30;;;;;;;;;;5072195;28;20204;-67
2021/08/08 14:18:54;;;;;;;6.30;2.10;;;;;;;;;;5072071;28;20317;-68
2021/08/08 14:21:19;;;;;;;3.90;1.80;;;;;;;;;;5072081;28;20467;-66
2021/08/08 14:23:44;;;;;;;5.47;2.43;;;;;;;;;;5072267;28;20197;-68
2021/08/08 14:26:09;;;;;;;5.70;2.03;;;;;;;;;;5072157;28;20902;-67